Terminal Aerodrome Forecast
Issued by NWS

Home | Current Version | Previous Version | Graphics & Text | Print | Product List | Glossary On
Versions: 1 2 3 4 5 6 7 8 9 10 11 12 13 14 15 16 17 18 19 20 21 22 23 24
000
FTUS43 KABR 241700
TAFATY
TAF
KATY 241739Z 2418/2518 33024G31KT P6SM -SN OVC015
      TEMPO 2418/2420 4SM -SN BKN020
     FM242000 33020G28KT P6SM SCT025
     FM250300 29007KT P6SM BKN150
     FM251200 20005KT P6SM OVC030=

USA.gov is the U.S. government's official web portal to all federal, state and local government web resources and services.